createdAt,value
2022-09-03T00:00:00.363Z,1011.7
2022-09-03T00:05:04.309Z,1011.8
2022-09-03T00:10:00.157Z,1011.7
2022-09-03T00:15:00.147Z,1011.7
2022-09-03T00:20:00.320Z,1011.7
2022-09-03T00:24:59.945Z,1011.7
2022-09-03T00:30:01.795Z,1011.6
2022-09-03T00:35:00.365Z,1011.6
2022-09-03T00:40:00.014Z,1011.5
2022-09-03T00:45:00.125Z,1011.5
2022-09-03T00:50:05.822Z,1011.6
2022-09-03T00:55:05.993Z,1011.6
2022-09-03T01:00:00.133Z,1011.6
2022-09-03T01:05:00.270Z,1011.6
2022-09-03T01:10:00.028Z,1011.6
2022-09-03T01:15:04.260Z,1011.6
2022-09-03T01:20:00.047Z,1011.6
2022-09-03T01:25:09.729Z,1011.6
2022-09-03T01:30:00.196Z,1011.6
2022-09-03T01:35:00.093Z,1011.7
2022-09-03T01:40:00.439Z,1011.7
2022-09-03T01:45:00.346Z,1011.7
2022-09-03T01:49:59.984Z,1011.6
2022-09-03T01:54:59.963Z,1011.6
2022-09-03T02:00:03.083Z,1011.6
2022-09-03T02:05:00.132Z,1011.6
2022-09-03T02:10:00.188Z,1011.5
2022-09-03T02:15:02.406Z,1011.5
2022-09-03T02:19:59.932Z,1011.5
2022-09-03T02:25:00.255Z,1011.5
2022-09-03T02:35:00.096Z,1011.5
2022-09-03T02:40:00.081Z,1011.5
2022-09-03T02:44:59.887Z,1011.5
2022-09-03T02:50:00.139Z,1011.5
2022-09-03T02:55:00.142Z,1011.5
2022-09-03T03:00:00.171Z,1011.4
2022-09-03T03:04:59.980Z,1011.4
2022-09-03T03:09:59.966Z,1011.4
2022-09-03T03:14:59.886Z,1011.4
2022-09-03T03:19:59.870Z,1011.5
2022-09-03T03:25:00.149Z,1011.5
2022-09-03T03:29:59.948Z,1011.3
2022-09-03T03:35:00.258Z,1011.3
2022-09-03T03:40:00.001Z,1011.3
2022-09-03T03:44:59.799Z,1011.4
2022-09-03T03:50:00.100Z,1011.4
2022-09-03T03:54:59.896Z,1011.3
2022-09-03T03:59:59.968Z,1011.3
2022-09-03T04:05:00.052Z,1011.4
2022-09-03T04:09:59.974Z,1011.4
2022-09-03T04:14:59.790Z,1011.4
2022-09-03T04:20:00.084Z,1011.4
2022-09-03T04:24:59.824Z,1011.3
2022-09-03T04:29:59.952Z,1011.4
2022-09-03T04:35:00.016Z,1011.4
2022-09-03T04:39:59.862Z,1011.3
2022-09-03T04:44:59.921Z,1011.3
2022-09-03T04:50:00.091Z,1011.3
2022-09-03T04:54:59.983Z,1011.3
2022-09-03T04:59:59.879Z,1011.3
2022-09-03T05:04:59.755Z,1011.3
2022-09-03T05:09:59.814Z,1011.3
2022-09-03T05:15:00.038Z,1011.3
2022-09-03T05:20:00.072Z,1011.3
2022-09-03T05:24:59.775Z,1011.3
2022-09-03T05:30:00.136Z,1011.3
2022-09-03T05:34:59.998Z,1011.3
2022-09-03T05:40:00.032Z,1011.2
2022-09-03T05:44:59.962Z,1011.3
2022-09-03T05:49:59.903Z,1011.2
2022-09-03T05:55:00.023Z,1011.3
2022-09-03T06:00:00.022Z,1011.3
2022-09-03T06:04:59.821Z,1011.3
2022-09-03T06:09:59.887Z,1011.3
2022-09-03T06:15:00.110Z,1011.3
2022-09-03T06:20:00.005Z,1011.3
2022-09-03T06:24:59.841Z,1011.3
2022-09-03T06:29:59.993Z,1011.3
2022-09-03T06:35:00.079Z,1011.3
2022-09-03T06:40:00.088Z,1011.3
2022-09-03T06:45:00.013Z,1011.3
2022-09-03T06:50:00.282Z,1011.3
2022-09-03T06:54:59.942Z,1011.3
2022-09-03T06:59:59.838Z,1011.4
2022-09-03T07:04:59.671Z,1011.3
2022-09-03T07:09:59.958Z,1011.4
2022-09-03T07:15:00.204Z,1011.4
2022-09-03T07:19:59.971Z,1011.4
2022-09-03T07:24:59.689Z,1011.3
2022-09-03T07:29:59.969Z,1011.4
2022-09-03T07:34:59.594Z,1011.4
2022-09-03T07:39:59.979Z,1011.5
2022-09-03T07:44:59.882Z,1011.5
2022-09-03T07:50:00.056Z,1011.6
2022-09-03T07:54:59.625Z,1011.6
2022-09-03T07:59:59.986Z,1011.6
2022-09-03T08:04:59.772Z,1011.5
2022-09-03T08:09:59.716Z,1011.6
2022-09-03T08:14:59.632Z,1011.7
2022-09-03T08:20:00.196Z,1011.7
2022-09-03T08:24:59.865Z,1011.7
2022-09-03T08:29:59.765Z,1011.7
2022-09-03T08:34:59.851Z,1011.7
2022-09-03T08:39:59.917Z,1011.7
2022-09-03T08:44:59.839Z,1011.8
2022-09-03T08:49:59.755Z,1011.7
2022-09-03T08:54:59.810Z,1011.7
2022-09-03T08:59:59.928Z,1011.7
2022-09-03T09:04:59.776Z,1011.7
2022-09-03T09:10:04.289Z,1011.7
2022-09-03T09:15:04.561Z,1011.7
2022-09-03T09:20:03.740Z,1011.8
2022-09-03T09:24:59.535Z,1011.8
2022-09-03T09:29:59.775Z,1011.7
2022-09-03T09:34:59.863Z,1011.7
2022-09-03T09:40:01.008Z,1011.7
2022-09-03T09:44:59.593Z,1011.7
2022-09-03T09:49:59.925Z,1011.6
2022-09-03T09:54:59.530Z,1011.7
2022-09-03T09:59:59.865Z,1011.7
2022-09-03T10:05:00.942Z,1011.7
2022-09-03T10:09:59.874Z,1011.6
2022-09-03T10:14:59.515Z,1011.7
2022-09-03T10:20:06.249Z,1011.6
2022-09-03T10:24:59.564Z,1011.6
2022-09-03T10:29:59.722Z,1011.6
2022-09-03T10:34:59.654Z,1011.6
2022-09-03T10:39:59.888Z,1011.5
2022-09-03T10:44:59.520Z,1011.4
2022-09-03T10:49:59.550Z,1011.4
2022-09-03T10:54:59.742Z,1011.4
2022-09-03T11:00:02.886Z,1011.3
2022-09-03T11:05:01.756Z,1011.4
2022-09-03T11:09:59.844Z,1011.4
2022-09-03T11:14:59.518Z,1011.4
2022-09-03T11:19:59.654Z,1011.3
2022-09-03T11:24:59.509Z,1011.3
2022-09-03T11:30:02.022Z,1011.3
2022-09-03T11:34:59.441Z,1011.3
2022-09-03T11:39:59.609Z,1011.3
2022-09-03T11:45:11.530Z,1011.3
2022-09-03T11:49:59.555Z,1011.3
2022-09-03T11:54:59.699Z,1011.3
2022-09-03T11:59:59.716Z,1011.3
2022-09-03T12:04:59.706Z,1011.3
2022-09-03T12:10:25.774Z,1011.3
2022-09-03T12:15:02.974Z,1011.3
2022-09-03T12:19:59.784Z,1011.4
2022-09-03T12:24:59.754Z,1011.3
2022-09-03T12:30:01.378Z,1011.4
2022-09-03T12:35:09.583Z,1011.4
2022-09-03T12:40:08.227Z,1011.4
2022-09-03T12:44:59.419Z,1011.3
2022-09-03T12:50:05.070Z,1011.4
2022-09-03T12:55:01.684Z,1011.3
2022-09-03T12:59:59.584Z,1011.3
2022-09-03T13:04:59.677Z,1011.3
2022-09-03T13:09:59.565Z,1011.3
2022-09-03T13:14:59.587Z,1011.3
2022-09-03T13:20:10.915Z,1011.2
2022-09-03T13:25:07.643Z,1011.2
2022-09-03T13:29:59.639Z,1011.2
2022-09-03T13:34:59.321Z,1011.2
2022-09-03T13:39:59.591Z,1011.1
2022-09-03T13:45:03.191Z,1011.1
2022-09-03T13:49:59.693Z,1011.1
2022-09-03T13:54:59.708Z,1011.1
2022-09-03T13:59:59.584Z,1011.1
2022-09-03T14:04:59.329Z,1011
2022-09-03T14:09:59.665Z,1011.1
2022-09-03T14:14:59.355Z,1011.1
2022-09-03T14:19:59.618Z,1011.1
2022-09-03T14:25:02.025Z,1011.1
2022-09-03T14:29:59.425Z,1011.1
2022-09-03T14:34:59.730Z,1011.1
2022-09-03T14:39:59.664Z,1011.1
2022-09-03T14:44:59.596Z,1011.1
2022-09-03T14:50:05.173Z,1011
2022-09-03T14:54:59.400Z,1011.1
2022-09-03T15:00:05.031Z,1011.1
2022-09-03T15:04:59.368Z,1011.1
2022-09-03T15:09:59.414Z,1011.2
2022-09-03T15:15:00.305Z,1011.1
2022-09-03T15:20:08.091Z,1011.1
2022-09-03T15:24:59.619Z,1011.1
2022-09-03T15:29:59.656Z,1011.2
2022-09-03T15:35:05.522Z,1011.2
2022-09-03T15:40:01.875Z,1011.2
2022-09-03T15:45:02.296Z,1011.2
2022-09-03T15:49:59.574Z,1011.2
2022-09-03T15:55:04.964Z,1011.1
2022-09-03T15:59:59.309Z,1011.2
2022-09-03T16:05:07.308Z,1011.1
2022-09-03T16:10:23.165Z,1011.1
2022-09-03T16:14:59.283Z,1011.2
2022-09-03T16:19:59.596Z,1011.2
2022-09-03T16:24:59.596Z,1011.2
2022-09-03T16:29:59.639Z,1011.3
2022-09-03T16:34:59.535Z,1011.2
2022-09-03T16:39:59.486Z,1011.2
2022-09-03T16:45:04.452Z,1011.2
2022-09-03T16:49:59.544Z,1011.2
2022-09-03T16:55:06.369Z,1011.2
2022-09-03T16:59:59.235Z,1011.2
2022-09-03T17:04:59.602Z,1011.2
2022-09-03T17:09:59.624Z,1011.2
2022-09-03T17:14:59.467Z,1011.3
2022-09-03T17:20:04.354Z,1011.3
2022-09-03T17:24:59.227Z,1011.3
2022-09-03T17:29:59.334Z,1011.3
2022-09-03T17:34:59.427Z,1011.4
2022-09-03T17:40:03.254Z,1011.4
2022-09-03T17:44:59.432Z,1011.5
2022-09-03T17:50:07.923Z,1011.5
2022-09-03T17:54:59.292Z,1011.6
2022-09-03T17:59:59.253Z,1011.6
2022-09-03T18:04:59.233Z,1011.7
2022-09-03T18:10:06.853Z,1011.8
2022-09-03T18:15:03.275Z,1011.8
2022-09-03T18:19:59.407Z,1011.8
2022-09-03T18:25:00.514Z,1011.9
2022-09-03T18:30:00.403Z,1012
2022-09-03T18:35:00.615Z,1012.1
2022-09-03T18:40:00.752Z,1012.1
2022-09-03T18:45:20.757Z,1012.2
2022-09-03T18:50:07.435Z,1012.2
2022-09-03T18:55:08.756Z,1012.3
2022-09-03T19:00:00.373Z,1012.4
2022-09-03T19:05:00.391Z,1012.4
2022-09-03T19:10:00.221Z,1012.4
2022-09-03T19:15:02.249Z,1012.5
2022-09-03T19:20:00.518Z,1012.6
2022-09-03T19:25:00.388Z,1012.6
2022-09-03T19:30:00.202Z,1012.5
2022-09-03T19:35:00.153Z,1012.6
2022-09-03T19:40:00.587Z,1012.6
2022-09-03T19:45:00.178Z,1012.7
2022-09-03T19:50:09.848Z,1012.7
2022-09-03T19:55:01.094Z,1012.7
2022-09-03T20:00:00.325Z,1012.7
2022-09-03T20:05:00.149Z,1012.8
2022-09-03T20:10:00.484Z,1012.8
2022-09-03T20:15:00.495Z,1012.8
2022-09-03T20:20:00.172Z,1012.8
2022-09-03T20:25:00.249Z,1012.8
2022-09-03T20:30:02.039Z,1012.8
2022-09-03T20:35:00.369Z,1012.9
2022-09-03T20:40:17.944Z,1012.9
2022-09-03T20:45:03.634Z,1013
2022-09-03T20:50:00.151Z,1013
2022-09-03T20:55:00.340Z,1013.1
2022-09-03T21:00:00.456Z,1013.1
2022-09-03T21:05:00.374Z,1013.1
2022-09-03T21:10:00.289Z,1013.1
2022-09-03T21:15:04.002Z,1013.1
2022-09-03T21:20:00.152Z,1013.1
2022-09-03T21:25:00.260Z,1013.1
2022-09-03T21:30:00.075Z,1013.1
2022-09-03T21:35:00.347Z,1013.2
2022-09-03T21:40:00.775Z,1013.2
2022-09-03T21:45:00.343Z,1013.2
2022-09-03T21:50:00.316Z,1013.2
2022-09-03T21:55:00.142Z,1013.2
2022-09-03T22:00:00.363Z,1013.3
2022-09-03T22:05:00.986Z,1013.3
2022-09-03T22:10:00.343Z,1013.3
2022-09-03T22:15:00.227Z,1013.3
2022-09-03T22:20:02.949Z,1013.3
2022-09-03T22:25:00.139Z,1013.3
2022-09-03T22:30:03.186Z,1013.4
2022-09-03T22:35:00.335Z,1013.4
2022-09-03T22:40:00.443Z,1013.4
2022-09-03T22:45:00.119Z,1013.4
2022-09-03T22:50:00.054Z,1013.4
2022-09-03T22:55:00.067Z,1013.4
2022-09-03T23:00:00.248Z,1013.5
2022-09-03T23:05:00.074Z,1013.5
2022-09-03T23:10:00.058Z,1013.6
2022-09-03T23:15:00.120Z,1013.6
2022-09-03T23:20:00.280Z,1013.7
2022-09-03T23:25:00.387Z,1013.7
2022-09-03T23:30:00.193Z,1013.8
2022-09-03T23:35:00.377Z,1013.9
2022-09-03T23:40:00.141Z,1013.9
2022-09-03T23:45:06.047Z,1013.9
2022-09-03T23:50:00.271Z,1013.9
2022-09-03T23:55:00.325Z,1013.9
